createdAt,value
2018-12-18T00:00:37.646Z,2.60
2018-12-18T00:03:06.018Z,2.60
2018-12-18T00:05:34.612Z,2.60
2018-12-18T00:08:03.146Z,2.60
2018-12-18T00:10:52.325Z,2.60
2018-12-18T00:13:20.768Z,2.60
2018-12-18T00:15:49.102Z,2.60
2018-12-18T00:18:17.461Z,2.60
2018-12-18T00:20:45.918Z,2.60
2018-12-18T00:23:14.310Z,2.60
2018-12-18T00:25:42.731Z,2.70
2018-12-18T00:28:11.213Z,2.60
2018-12-18T00:30:39.556Z,2.70
2018-12-18T00:33:07.915Z,2.60
2018-12-18T00:35:36.260Z,2.60
2018-12-18T00:40:51.492Z,2.70
2018-12-18T00:43:19.852Z,2.60
2018-12-18T00:45:48.192Z,2.70
2018-12-18T00:48:16.555Z,2.70
2018-12-18T00:50:45.080Z,2.60
2018-12-18T00:53:13.427Z,2.70
2018-12-18T00:55:41.762Z,2.70
2018-12-18T00:58:10.244Z,2.60
2018-12-18T01:00:38.606Z,2.70
2018-12-18T01:03:06.958Z,2.60
2018-12-18T01:05:35.296Z,2.70
2018-12-18T01:08:03.656Z,2.70
2018-12-18T01:10:32.003Z,2.60
2018-12-18T01:13:00.363Z,2.70
2018-12-18T01:15:28.814Z,2.60
2018-12-18T01:17:57.173Z,2.70
2018-12-18T01:20:25.639Z,2.70
2018-12-18T01:22:53.983Z,2.70
2018-12-18T01:25:22.325Z,2.60
2018-12-18T01:27:50.735Z,2.60
2018-12-18T01:30:19.087Z,2.70
2018-12-18T01:32:47.535Z,2.70
2018-12-18T01:35:15.888Z,2.70
2018-12-18T01:37:44.227Z,2.70
2018-12-18T01:40:12.664Z,2.70
2018-12-18T01:42:41.006Z,2.70
2018-12-18T01:45:09.480Z,2.60
2018-12-18T01:47:38.026Z,2.70
2018-12-18T01:50:06.486Z,2.70
2018-12-18T01:52:34.832Z,2.70
2018-12-18T01:55:05.904Z,2.70
2018-12-18T01:57:34.256Z,2.60
2018-12-18T02:00:02.592Z,2.70
2018-12-18T02:02:30.944Z,2.60
2018-12-18T02:04:59.301Z,2.70
2018-12-18T02:07:27.796Z,2.70
2018-12-18T02:09:56.130Z,2.70
2018-12-18T02:12:24.469Z,2.70
2018-12-18T02:14:52.887Z,2.70
2018-12-18T02:17:21.230Z,2.60
2018-12-18T02:19:49.590Z,2.60
2018-12-18T02:22:17.935Z,2.70
2018-12-18T02:24:46.297Z,2.60
2018-12-18T02:27:14.639Z,2.70
2018-12-18T02:29:42.987Z,2.70
2018-12-18T02:32:11.332Z,2.70
2018-12-18T02:34:39.671Z,2.70
2018-12-18T02:37:08.088Z,2.70
2018-12-18T02:39:36.432Z,2.70
2018-12-18T02:42:04.873Z,2.70
2018-12-18T02:44:33.215Z,2.70
2018-12-18T02:47:01.653Z,2.70
2018-12-18T02:49:30.022Z,2.70
2018-12-18T02:51:58.403Z,2.70
2018-12-18T02:54:26.748Z,2.70
2018-12-18T02:56:55.089Z,2.70
2018-12-18T02:59:23.445Z,2.70
2018-12-18T03:01:51.783Z,2.70
2018-12-18T03:04:21.786Z,2.70
2018-12-18T03:06:50.500Z,2.70
2018-12-18T03:09:18.997Z,2.70
2018-12-18T03:11:47.366Z,2.70
2018-12-18T03:14:15.813Z,2.70
2018-12-18T03:16:44.159Z,2.70
2018-12-18T03:19:12.532Z,2.70
2018-12-18T03:21:41.487Z,2.70
2018-12-18T03:24:09.847Z,2.70
2018-12-18T03:26:38.184Z,2.70
2018-12-18T03:29:06.529Z,2.70
2018-12-18T03:31:36.961Z,2.70
2018-12-18T03:34:05.313Z,2.70
2018-12-18T03:36:33.820Z,2.70
2018-12-18T03:39:02.282Z,2.70
2018-12-18T03:41:30.635Z,2.70
2018-12-18T03:43:59.001Z,2.70
2018-12-18T03:46:27.356Z,2.70
2018-12-18T03:48:55.808Z,2.70
2018-12-18T03:51:24.248Z,2.70
2018-12-18T03:53:52.596Z,2.70
2018-12-18T03:56:20.935Z,2.70
2018-12-18T03:58:49.279Z,2.70
2018-12-18T04:01:17.630Z,2.70
2018-12-18T04:03:45.966Z,2.70
2018-12-18T04:06:14.323Z,2.70
2018-12-18T04:08:42.684Z,2.70
2018-12-18T04:11:11.139Z,2.80
2018-12-18T04:13:39.481Z,2.70
2018-12-18T04:16:07.845Z,2.80
2018-12-18T04:18:36.352Z,2.80
2018-12-18T04:21:04.704Z,2.80
2018-12-18T04:23:33.333Z,2.80
2018-12-18T04:26:01.689Z,2.80
2018-12-18T04:28:30.044Z,2.70
2018-12-18T04:30:58.394Z,2.80
2018-12-18T04:33:26.739Z,2.80
2018-12-18T04:35:55.088Z,2.80
2018-12-18T04:38:23.429Z,2.70
2018-12-18T04:40:51.774Z,2.80
2018-12-18T04:43:20.133Z,2.80
2018-12-18T04:45:48.524Z,2.80
2018-12-18T04:48:16.869Z,2.80
2018-12-18T04:50:45.373Z,2.80
2018-12-18T04:53:13.739Z,2.80
2018-12-18T04:55:42.093Z,2.80
2018-12-18T04:58:10.571Z,2.80
2018-12-18T05:00:38.912Z,2.80
2018-12-18T05:03:07.268Z,2.80
2018-12-18T05:05:35.608Z,2.80
2018-12-18T05:08:04.056Z,2.80
2018-12-18T05:10:32.505Z,2.80
2018-12-18T05:13:00.866Z,2.80
2018-12-18T05:15:29.214Z,2.80
2018-12-18T05:17:57.843Z,2.80
2018-12-18T05:20:26.195Z,2.80
2018-12-18T05:22:54.535Z,2.90
2018-12-18T05:25:22.881Z,2.80
2018-12-18T05:27:51.431Z,2.90
2018-12-18T05:30:19.786Z,2.80
2018-12-18T05:32:48.147Z,2.80
2018-12-18T05:35:16.500Z,2.90
2018-12-18T05:37:44.858Z,2.90
2018-12-18T05:40:13.202Z,2.80
2018-12-18T05:42:41.553Z,2.90
2018-12-18T05:45:09.910Z,2.90
2018-12-18T05:47:38.262Z,2.90
2018-12-18T05:50:07.035Z,2.90
2018-12-18T05:52:35.378Z,2.90
2018-12-18T05:55:04.925Z,2.90
2018-12-18T05:57:33.433Z,2.90
2018-12-18T06:00:01.764Z,2.90
2018-12-18T06:02:30.123Z,2.90
2018-12-18T06:05:03.186Z,2.90
2018-12-18T06:07:28.851Z,2.90
2018-12-18T06:09:57.194Z,2.90
2018-12-18T06:12:25.563Z,3.00
2018-12-18T06:14:53.933Z,3.00
2018-12-18T06:17:22.403Z,3.00
2018-12-18T06:19:50.752Z,3.00
2018-12-18T06:22:19.096Z,2.90
2018-12-18T06:24:47.449Z,2.90
2018-12-18T06:27:15.803Z,2.90
2018-12-18T06:29:44.294Z,3.00
2018-12-18T06:32:12.637Z,3.00
2018-12-18T06:34:41.262Z,3.00
2018-12-18T06:37:09.610Z,3.00
2018-12-18T06:39:37.980Z,3.00
2018-12-18T06:42:06.495Z,3.00
2018-12-18T06:44:34.849Z,3.10
2018-12-18T06:47:03.195Z,3.10
2018-12-18T06:49:31.546Z,3.00
2018-12-18T06:51:59.915Z,3.00
2018-12-18T06:54:28.332Z,3.00
2018-12-18T06:56:56.687Z,3.10
2018-12-18T06:59:25.033Z,3.10
2018-12-18T07:01:53.390Z,3.10
2018-12-18T07:04:21.730Z,3.10
2018-12-18T07:06:50.087Z,3.10
2018-12-18T07:09:18.434Z,3.10
2018-12-18T07:11:46.779Z,3.30
2018-12-18T07:14:15.113Z,3.70
2018-12-18T07:16:43.469Z,4.00
2018-12-18T07:19:12.232Z,4.10
2018-12-18T07:21:40.574Z,4.20
2018-12-18T07:24:14.094Z,4.30
2018-12-18T07:26:39.479Z,4.30
2018-12-18T07:29:07.822Z,4.40
2018-12-18T07:31:36.191Z,4.40
2018-12-18T07:34:05.107Z,4.50
2018-12-18T07:36:33.648Z,4.50
2018-12-18T07:39:02.048Z,4.60
2018-12-18T07:41:30.386Z,4.60
2018-12-18T07:43:58.751Z,4.60
2018-12-18T07:46:27.102Z,4.60
2018-12-18T07:48:55.535Z,4.70
2018-12-18T07:51:24.566Z,4.60
2018-12-18T07:53:53.627Z,4.70
2018-12-18T07:56:22.353Z,4.70
2018-12-18T07:58:50.697Z,4.70
2018-12-18T08:01:19.039Z,4.70
2018-12-18T08:03:47.435Z,4.70
2018-12-18T08:06:16.055Z,4.70
2018-12-18T08:08:44.391Z,4.70
2018-12-18T08:11:12.770Z,4.70
2018-12-18T08:13:41.130Z,4.80
2018-12-18T08:16:09.488Z,4.70
2018-12-18T08:18:37.847Z,4.70
2018-12-18T08:21:06.197Z,4.70
2018-12-18T08:23:34.535Z,4.80
2018-12-18T08:26:02.882Z,4.80
2018-12-18T08:28:31.239Z,4.80
2018-12-18T08:30:59.598Z,4.80
2018-12-18T08:33:27.951Z,4.80
2018-12-18T08:35:56.307Z,4.80
2018-12-18T08:38:24.679Z,4.80
2018-12-18T08:40:53.044Z,4.80
2018-12-18T08:43:21.397Z,4.80
2018-12-18T08:45:49.923Z,4.80
2018-12-18T08:48:18.371Z,4.80
2018-12-18T08:50:46.784Z,4.80
2018-12-18T08:53:16.340Z,4.80
2018-12-18T08:55:44.971Z,4.80
2018-12-18T08:58:13.456Z,4.80
2018-12-18T09:00:41.810Z,4.80
2018-12-18T09:03:10.157Z,4.80
2018-12-18T09:05:43.109Z,4.80
2018-12-18T09:08:08.969Z,4.80
2018-12-18T09:10:39.886Z,4.80
2018-12-18T09:13:07.915Z,4.80
2018-12-18T09:15:41.937Z,4.80
2018-12-18T09:18:10.299Z,4.80
2018-12-18T09:20:38.649Z,4.80
2018-12-18T09:23:07.017Z,4.80
2018-12-18T09:25:35.383Z,4.80
2018-12-18T09:28:03.869Z,4.80
2018-12-18T09:30:32.242Z,4.80
2018-12-18T09:33:00.603Z,4.80
2018-12-18T09:35:29.267Z,4.80
2018-12-18T09:38:03.381Z,4.80
2018-12-18T09:40:33.758Z,4.80
2018-12-18T09:43:07.826Z,4.80
2018-12-18T09:45:36.177Z,4.80
2018-12-18T09:48:04.583Z,4.80
2018-12-18T09:50:32.943Z,4.80
2018-12-18T09:53:01.316Z,4.80
2018-12-18T09:55:29.720Z,4.80
2018-12-18T09:57:58.607Z,4.80
2018-12-18T10:00:26.968Z,4.80
2018-12-18T10:02:55.445Z,4.80
2018-12-18T10:05:23.791Z,4.80
2018-12-18T10:07:52.136Z,4.80
2018-12-18T10:10:20.505Z,4.80
2018-12-18T10:12:55.418Z,4.80
2018-12-18T10:15:25.703Z,4.80
2018-12-18T10:17:54.046Z,4.80
2018-12-18T10:20:22.617Z,4.80
2018-12-18T10:22:51.185Z,4.80
2018-12-18T10:25:19.543Z,4.80
2018-12-18T10:27:47.875Z,4.80
2018-12-18T10:30:16.233Z,4.80
2018-12-18T10:32:44.582Z,4.80
2018-12-18T10:35:13.175Z,4.80
2018-12-18T10:37:41.562Z,4.80
2018-12-18T10:40:10.532Z,4.80
2018-12-18T10:42:38.878Z,4.80
2018-12-18T10:45:13.694Z,4.80
2018-12-18T10:47:40.945Z,4.70
2018-12-18T10:50:09.294Z,4.70
2018-12-18T10:52:37.711Z,4.70
2018-12-18T10:55:06.179Z,4.70
2018-12-18T10:57:34.532Z,4.70
2018-12-18T11:00:07.422Z,4.70
2018-12-18T11:02:35.772Z,4.80
2018-12-18T11:05:04.947Z,4.70
2018-12-18T11:07:33.314Z,4.70
2018-12-18T11:10:01.672Z,4.70
2018-12-18T11:12:35.778Z,4.70
2018-12-18T11:15:04.376Z,4.80
2018-12-18T11:17:32.818Z,4.80
2018-12-18T11:20:01.277Z,4.80
2018-12-18T11:22:29.628Z,4.80
2018-12-18T11:24:58.001Z,4.80
2018-12-18T11:27:26.363Z,4.80
2018-12-18T11:29:54.718Z,4.80
2018-12-18T11:32:23.084Z,4.70
2018-12-18T11:34:51.423Z,4.80
2018-12-18T11:37:19.807Z,4.80
2018-12-18T11:39:48.166Z,4.80
2018-12-18T11:42:16.699Z,4.80
2018-12-18T11:44:45.057Z,4.80
2018-12-18T11:47:13.417Z,4.80
2018-12-18T11:49:41.875Z,4.80
2018-12-18T11:52:10.230Z,4.70
2018-12-18T11:54:38.578Z,4.60
2018-12-18T11:57:06.949Z,4.60
2018-12-18T11:59:35.325Z,4.60
2018-12-18T12:02:03.835Z,4.50
2018-12-18T12:04:32.321Z,4.50
2018-12-18T12:07:00.837Z,4.50
2018-12-18T12:09:29.190Z,4.50
2018-12-18T12:11:57.540Z,4.50
2018-12-18T12:14:26.025Z,4.40
2018-12-18T12:16:54.515Z,4.40
2018-12-18T12:19:22.878Z,4.40
2018-12-18T12:21:51.247Z,4.40
2018-12-18T12:24:19.609Z,4.40
2018-12-18T12:26:48.887Z,4.40
2018-12-18T12:29:17.424Z,4.40
2018-12-18T12:31:45.901Z,4.40
2018-12-18T12:34:14.725Z,4.40
2018-12-18T12:36:43.082Z,4.40
2018-12-18T12:39:11.385Z,4.40
2018-12-18T12:41:39.826Z,4.40
2018-12-18T12:44:08.184Z,4.40
2018-12-18T12:46:36.549Z,4.40
2018-12-18T12:49:07.109Z,4.40
2018-12-18T12:51:35.702Z,4.40
2018-12-18T12:54:04.187Z,4.40
2018-12-18T12:56:32.550Z,4.40
2018-12-18T12:59:01.035Z,4.30
2018-12-18T13:01:29.514Z,4.40
2018-12-18T13:03:57.941Z,4.30
2018-12-18T13:06:26.299Z,4.30
2018-12-18T13:08:54.860Z,4.30
2018-12-18T13:11:23.220Z,4.40
2018-12-18T13:13:51.887Z,4.30
2018-12-18T13:16:20.241Z,4.40
2018-12-18T13:18:48.604Z,4.40
2018-12-18T13:21:17.152Z,4.40
2018-12-18T13:23:45.516Z,4.30
2018-12-18T13:26:14.130Z,4.30
2018-12-18T13:28:42.495Z,4.30
2018-12-18T13:31:10.943Z,4.30
2018-12-18T13:33:39.324Z,4.30
2018-12-18T13:36:07.730Z,4.30
2018-12-18T13:38:36.088Z,4.30
2018-12-18T13:41:04.458Z,4.30
2018-12-18T13:43:32.818Z,4.30
2018-12-18T13:46:01.163Z,4.30
2018-12-18T13:48:29.503Z,4.30
2018-12-18T13:50:59.053Z,4.40
2018-12-18T13:53:27.624Z,4.30
2018-12-18T13:55:55.986Z,4.30
2018-12-18T13:58:24.363Z,4.30
2018-12-18T14:00:52.711Z,4.30
2018-12-18T14:03:21.067Z,4.30
2018-12-18T14:05:49.426Z,4.30
2018-12-18T14:08:17.776Z,4.30
2018-12-18T14:10:46.138Z,4.30
2018-12-18T14:13:14.490Z,4.30
2018-12-18T14:15:42.857Z,4.30
2018-12-18T14:18:11.229Z,4.30
2018-12-18T14:20:39.603Z,4.40
2018-12-18T14:23:07.977Z,4.60
2018-12-18T14:25:36.941Z,4.80
2018-12-18T14:28:05.413Z,5.00
2018-12-18T14:30:33.773Z,5.10
2018-12-18T14:33:02.126Z,5.20
2018-12-18T14:35:30.491Z,5.30
2018-12-18T14:37:58.864Z,5.30
2018-12-18T14:40:27.347Z,5.40
2018-12-18T14:42:55.795Z,5.40
2018-12-18T14:45:24.371Z,5.40
2018-12-18T14:47:52.927Z,5.40
2018-12-18T14:50:21.739Z,5.40
2018-12-18T14:52:50.122Z,5.50
2018-12-18T14:55:18.500Z,5.50
2018-12-18T14:57:47.198Z,5.50
2018-12-18T15:00:16.690Z,5.50
2018-12-18T15:02:45.047Z,5.60
2018-12-18T15:05:13.564Z,5.50
2018-12-18T15:07:42.099Z,5.60
2018-12-18T15:10:10.458Z,5.50
2018-12-18T15:12:41.046Z,5.60
2018-12-18T15:15:09.418Z,5.60
2018-12-18T15:17:37.836Z,5.60
2018-12-18T15:20:07.915Z,5.60
2018-12-18T15:22:36.283Z,5.60
2018-12-18T15:25:05.968Z,5.60
2018-12-18T15:27:34.484Z,5.60
2018-12-18T15:30:02.859Z,5.60
2018-12-18T15:32:31.521Z,5.60
2018-12-18T15:34:59.908Z,5.60
2018-12-18T15:37:28.269Z,5.60
2018-12-18T15:39:56.621Z,5.60
2018-12-18T15:42:24.994Z,5.60
2018-12-18T15:44:53.364Z,5.60
2018-12-18T15:47:21.785Z,5.60
2018-12-18T15:49:50.401Z,5.60
2018-12-18T15:52:18.770Z,5.60
2018-12-18T15:54:47.270Z,5.60
2018-12-18T15:57:15.715Z,5.60
2018-12-18T15:59:44.231Z,5.60
2018-12-18T16:02:12.605Z,5.70
2018-12-18T16:04:40.985Z,5.60
2018-12-18T16:07:15.872Z,5.60
2018-12-18T16:09:39.800Z,5.60
2018-12-18T16:12:08.162Z,5.60
2018-12-18T16:14:36.518Z,5.60
2018-12-18T16:17:05.124Z,5.60
2018-12-18T16:19:33.605Z,5.60
2018-12-18T16:22:02.355Z,5.60
2018-12-18T16:24:30.900Z,5.60
2018-12-18T16:26:59.264Z,5.60
2018-12-18T16:29:27.706Z,5.60
2018-12-18T16:31:56.128Z,5.60
2018-12-18T16:34:24.606Z,5.60
2018-12-18T16:36:53.185Z,5.60
2018-12-18T16:39:21.532Z,5.60
2018-12-18T16:41:49.929Z,5.60
2018-12-18T16:44:18.290Z,5.60
2018-12-18T16:46:46.633Z,5.60
2018-12-18T16:49:14.974Z,5.60
2018-12-18T16:51:43.754Z,5.50
2018-12-18T16:54:12.649Z,5.60
2018-12-18T16:56:41.000Z,5.50
2018-12-18T16:59:09.504Z,5.50
2018-12-18T17:01:37.843Z,5.50
2018-12-18T17:04:06.192Z,5.50
2018-12-18T17:06:34.590Z,5.50
2018-12-18T17:09:05.010Z,5.50
2018-12-18T17:11:33.357Z,5.50
2018-12-18T17:14:02.463Z,5.50
2018-12-18T17:16:31.226Z,5.50
2018-12-18T17:18:59.602Z,5.50
2018-12-18T17:21:28.081Z,5.50
2018-12-18T17:23:56.475Z,5.50
2018-12-18T17:26:24.850Z,5.50
2018-12-18T17:28:53.217Z,5.50
2018-12-18T17:31:21.596Z,5.50
2018-12-18T17:33:49.958Z,5.40
2018-12-18T17:36:18.306Z,5.50
2018-12-18T17:38:46.664Z,5.50
2018-12-18T17:41:15.076Z,5.50
2018-12-18T17:43:43.750Z,5.50
2018-12-18T17:46:12.271Z,5.50
2018-12-18T17:48:40.634Z,5.50
2018-12-18T17:51:09.239Z,5.50
2018-12-18T17:53:37.675Z,5.50
2018-12-18T17:56:06.814Z,5.50
2018-12-18T17:58:35.415Z,5.50
2018-12-18T18:01:03.811Z,5.50
2018-12-18T18:03:32.168Z,5.50
2018-12-18T18:06:00.525Z,5.40
2018-12-18T18:08:28.879Z,5.50
2018-12-18T18:10:57.489Z,5.50
2018-12-18T18:13:25.839Z,5.40
2018-12-18T18:15:54.408Z,5.40
2018-12-18T18:18:22.768Z,5.40
2018-12-18T18:20:51.219Z,5.40
2018-12-18T18:23:19.638Z,5.40
2018-12-18T18:25:48.108Z,5.40
2018-12-18T18:28:16.594Z,5.40
2018-12-18T18:30:45.116Z,5.40
2018-12-18T18:33:13.520Z,5.40
2018-12-18T18:35:41.889Z,5.40
2018-12-18T18:38:10.249Z,5.40
2018-12-18T18:40:38.625Z,5.40
2018-12-18T18:43:07.143Z,5.40
2018-12-18T18:45:35.714Z,5.40
2018-12-18T18:48:04.195Z,5.40
2018-12-18T18:50:32.560Z,5.40
2018-12-18T18:53:01.048Z,5.30
2018-12-18T18:55:29.530Z,5.40
2018-12-18T18:57:57.892Z,5.40
2018-12-18T19:00:26.287Z,5.40
2018-12-18T19:02:54.700Z,5.40
2018-12-18T19:05:23.061Z,5.30
2018-12-18T19:07:56.358Z,5.30
2018-12-18T19:10:23.486Z,5.30
2018-12-18T19:12:54.014Z,5.30
2018-12-18T19:15:23.802Z,5.30
2018-12-18T19:17:52.506Z,5.30
2018-12-18T19:20:20.889Z,5.30
2018-12-18T19:22:49.269Z,5.30
2018-12-18T19:25:17.623Z,5.30
2018-12-18T19:27:47.968Z,5.30
2018-12-18T19:30:17.487Z,5.30
2018-12-18T19:32:46.950Z,5.30
2018-12-18T19:35:15.563Z,5.30
2018-12-18T19:37:44.389Z,5.30
2018-12-18T19:40:12.749Z,5.20
2018-12-18T19:42:41.216Z,5.20
2018-12-18T19:45:09.708Z,5.20
2018-12-18T19:47:38.201Z,5.20
2018-12-18T19:50:06.691Z,5.20
2018-12-18T19:52:35.047Z,5.20
2018-12-18T19:55:04.017Z,5.20
2018-12-18T19:57:32.368Z,5.20
2018-12-18T20:00:00.715Z,5.20
2018-12-18T20:02:29.068Z,5.20
2018-12-18T20:04:57.415Z,5.20
2018-12-18T20:07:26.041Z,5.20
2018-12-18T20:09:54.499Z,5.20
2018-12-18T20:12:22.848Z,5.20
2018-12-18T20:14:51.271Z,5.20
2018-12-18T20:17:19.730Z,5.20
2018-12-18T20:19:48.082Z,5.20
2018-12-18T20:22:16.470Z,5.20
2018-12-18T20:24:44.819Z,5.10
2018-12-18T20:27:17.139Z,5.10
2018-12-18T20:29:45.591Z,5.10
2018-12-18T20:32:13.954Z,5.10
2018-12-18T20:34:42.309Z,5.10
2018-12-18T20:37:10.679Z,5.00
2018-12-18T20:39:39.083Z,5.00
2018-12-18T20:42:08.811Z,5.00
2018-12-18T20:44:38.228Z,5.00
2018-12-18T20:47:07.206Z,5.00
2018-12-18T20:49:35.822Z,5.00
2018-12-18T20:52:04.189Z,5.00
2018-12-18T20:54:32.549Z,5.00
2018-12-18T20:57:00.932Z,4.90
2018-12-18T20:59:29.413Z,5.00
2018-12-18T21:01:58.608Z,4.90
2018-12-18T21:04:27.377Z,4.90
2018-12-18T21:06:58.846Z,4.90
2018-12-18T21:09:27.440Z,4.90
2018-12-18T21:11:55.837Z,4.90
2018-12-18T21:14:25.134Z,4.90
2018-12-18T21:16:54.265Z,4.90
2018-12-18T21:19:22.828Z,4.90
2018-12-18T21:21:51.187Z,4.90
2018-12-18T21:24:19.547Z,4.80
2018-12-18T21:26:47.911Z,4.80
2018-12-18T21:29:17.698Z,4.80
2018-12-18T21:31:46.109Z,4.80
2018-12-18T21:34:14.470Z,4.80
2018-12-18T21:36:42.911Z,4.80
2018-12-18T21:39:11.336Z,4.80
2018-12-18T21:41:39.702Z,4.70
2018-12-18T21:44:08.231Z,4.70
2018-12-18T21:46:36.580Z,4.70
2018-12-18T21:49:04.929Z,4.70
2018-12-18T21:51:33.469Z,4.70
2018-12-18T21:54:01.957Z,4.70
2018-12-18T21:56:30.328Z,4.70
2018-12-18T21:58:58.685Z,4.70
2018-12-18T22:01:27.053Z,4.60
2018-12-18T22:03:55.410Z,4.60
2018-12-18T22:06:23.771Z,4.60
2018-12-18T22:08:52.149Z,4.60
2018-12-18T22:11:20.788Z,4.60
2018-12-18T22:13:49.184Z,4.60
2018-12-18T22:16:17.527Z,4.60
2018-12-18T22:18:45.904Z,4.60
2018-12-18T22:21:14.360Z,4.60
2018-12-18T22:23:42.900Z,4.50
2018-12-18T22:26:11.383Z,4.50
2018-12-18T22:28:39.742Z,4.50
2018-12-18T22:31:08.103Z,4.50
2018-12-18T22:33:36.447Z,4.50
2018-12-18T22:36:04.989Z,4.50
2018-12-18T22:38:33.338Z,4.40
2018-12-18T22:41:01.863Z,4.40
2018-12-18T22:43:30.211Z,4.40
2018-12-18T22:45:58.859Z,4.40
2018-12-18T22:48:27.303Z,4.40
2018-12-18T22:50:55.790Z,4.40
2018-12-18T22:53:24.131Z,4.40
2018-12-18T22:55:53.256Z,4.40
2018-12-18T22:58:21.791Z,4.40
2018-12-18T23:00:52.961Z,4.30
2018-12-18T23:03:21.465Z,4.40
2018-12-18T23:05:49.825Z,4.30
2018-12-18T23:08:18.891Z,4.40
2018-12-18T23:10:47.231Z,4.30
2018-12-18T23:13:22.853Z,4.40
2018-12-18T23:15:51.191Z,4.30
2018-12-18T23:18:19.547Z,4.30
2018-12-18T23:20:47.949Z,4.30
2018-12-18T23:23:16.291Z,4.30
2018-12-18T23:25:44.645Z,4.20
2018-12-18T23:28:13.125Z,4.20
2018-12-18T23:30:41.493Z,4.20
2018-12-18T23:33:09.991Z,4.20
2018-12-18T23:35:38.465Z,4.20
2018-12-18T23:38:06.835Z,4.20
2018-12-18T23:40:35.241Z,4.20
2018-12-18T23:43:03.593Z,4.20
2018-12-18T23:45:32.018Z,4.20
2018-12-18T23:48:00.376Z,4.20
2018-12-18T23:50:28.783Z,4.10
2018-12-18T23:52:57.931Z,4.10
2018-12-18T23:55:26.301Z,4.10
2018-12-18T23:57:54.747Z,4.10
